createdAt,value
2018-03-06T00:00:50.517Z,91.19
2018-03-06T00:01:50.534Z,91.28
2018-03-06T00:02:50.548Z,91.28
2018-03-06T00:03:50.566Z,91.38
2018-03-06T00:04:50.588Z,91.38
2018-03-06T00:05:50.601Z,91.47
2018-03-06T00:06:50.624Z,91.28
2018-03-06T00:07:50.642Z,92.14
2018-03-06T00:08:50.653Z,91.95
2018-03-06T00:09:50.672Z,92.14
2018-03-06T00:10:50.747Z,91.66
2018-03-06T00:11:51.103Z,91.85
2018-03-06T00:12:51.119Z,92.23
2018-03-06T00:13:50.761Z,91.85
2018-03-06T00:14:50.766Z,91.66
2018-03-06T00:15:50.786Z,91.09
2018-03-06T00:16:50.843Z,91.19
2018-03-06T00:17:50.815Z,91.57
2018-03-06T00:18:50.840Z,91.57
2018-03-06T00:19:50.855Z,91.38
2018-03-06T00:20:50.869Z,91.38
2018-03-06T00:21:50.886Z,91.19
2018-03-06T00:22:50.910Z,91.09
2018-03-06T00:23:50.922Z,91.66
2018-03-06T00:24:50.944Z,91.66
2018-03-06T00:25:50.959Z,91.57
2018-03-06T00:26:50.979Z,91.85
2018-03-06T00:27:50.995Z,91.76
2018-03-06T00:28:51.016Z,92.14
2018-03-06T00:29:51.028Z,91.66
2018-03-06T00:30:51.055Z,91.76
2018-03-06T00:31:51.064Z,91.85
2018-03-06T00:32:51.086Z,91.76
2018-03-06T00:33:51.099Z,91.95
2018-03-06T00:34:51.123Z,92.14
2018-03-06T00:35:51.136Z,92.04
2018-03-06T00:36:51.158Z,92.04
2018-03-06T00:37:51.176Z,91.76
2018-03-06T00:38:51.189Z,91.85
2018-03-06T00:39:51.213Z,92.04
2018-03-06T00:40:51.224Z,92.14
2018-03-06T00:41:51.247Z,91.85
2018-03-06T00:42:51.262Z,91.85
2018-03-06T00:43:51.283Z,91.85
2018-03-06T00:44:51.298Z,91.85
2018-03-06T00:45:51.317Z,91.95
2018-03-06T00:46:51.330Z,92.04
2018-03-06T00:47:51.354Z,92.14
2018-03-06T00:48:51.371Z,91.85
2018-03-06T00:49:51.410Z,92.14
2018-03-06T00:50:51.403Z,91.76
2018-03-06T00:51:51.425Z,92.71
2018-03-06T00:52:51.437Z,92.61
2018-03-06T00:53:51.539Z,92.33
2018-03-06T00:54:51.473Z,92.33
2018-03-06T00:55:51.514Z,92.14
2018-03-06T00:56:51.514Z,92.23
2018-03-06T00:57:51.532Z,91.76
2018-03-06T00:58:51.556Z,92.52
2018-03-06T00:59:51.562Z,92.71
2018-03-06T01:00:51.584Z,92.61
2018-03-06T01:01:51.601Z,92.14
2018-03-06T01:02:51.619Z,92.52
2018-03-06T01:03:51.638Z,92.52
2018-03-06T01:04:51.650Z,92.71
2018-03-06T01:05:51.667Z,92.57
2018-03-06T01:06:51.691Z,92.90
2018-03-06T01:07:51.712Z,92.85
2018-03-06T01:08:51.722Z,92.61
2018-03-06T01:09:51.737Z,93.18
2018-03-06T01:10:51.762Z,92.76
2018-03-06T01:11:51.779Z,92.76
2018-03-06T01:12:51.790Z,92.66
2018-03-06T01:13:51.808Z,92.76
2018-03-06T01:14:51.831Z,92.85
2018-03-06T01:15:51.844Z,93.13
2018-03-06T01:16:51.861Z,93.13
2018-03-06T01:17:51.884Z,92.66
2018-03-06T01:18:51.897Z,92.66
2018-03-06T01:19:51.915Z,92.57
2018-03-06T01:20:51.939Z,93.61
2018-03-06T01:21:51.960Z,92.76
2018-03-06T01:22:51.968Z,93.32
2018-03-06T01:23:51.984Z,93.04
2018-03-06T01:24:52.007Z,93.13
2018-03-06T01:25:52.025Z,93.70
2018-03-06T01:26:52.043Z,93.13
2018-03-06T01:27:52.056Z,93.51
2018-03-06T01:28:52.079Z,93.32
2018-03-06T01:29:52.090Z,94.18
2018-03-06T01:30:52.114Z,93.04
2018-03-06T01:31:52.133Z,93.23
2018-03-06T01:32:52.148Z,93.80
2018-03-06T01:33:52.166Z,93.89
2018-03-06T01:34:52.179Z,93.80
2018-03-06T01:35:52.196Z,93.70
2018-03-06T01:36:52.217Z,93.51
2018-03-06T01:37:52.236Z,93.61
2018-03-06T01:38:52.249Z,94.18
2018-03-06T01:39:52.265Z,93.80
2018-03-06T01:40:52.289Z,93.61
2018-03-06T01:41:52.300Z,93.61
2018-03-06T01:42:52.318Z,93.70
2018-03-06T01:43:52.341Z,94.18
2018-03-06T01:44:52.352Z,93.61
2018-03-06T01:45:52.376Z,94.08
2018-03-06T01:46:52.389Z,93.80
2018-03-06T01:47:52.407Z,94.18
2018-03-06T01:48:52.429Z,94.08
2018-03-06T01:49:52.441Z,94.08
2018-03-06T01:50:52.465Z,94.46
2018-03-06T01:51:52.475Z,94.18
2018-03-06T01:52:52.498Z,94.37
2018-03-06T01:53:52.511Z,94.84
2018-03-06T01:54:52.533Z,94.37
2018-03-06T01:55:52.544Z,94.65
2018-03-06T01:56:52.569Z,94.74
2018-03-06T01:57:52.579Z,94.37
2018-03-06T01:58:52.603Z,94.93
2018-03-06T01:59:52.614Z,94.93
2018-03-06T02:00:52.636Z,95.12
2018-03-06T02:01:52.649Z,95.31
2018-03-06T02:02:52.672Z,95.12
2018-03-06T02:03:52.686Z,94.93
2018-03-06T02:04:52.707Z,95.60
2018-03-06T02:05:52.720Z,95.41
2018-03-06T02:06:52.816Z,95.50
2018-03-06T02:07:52.759Z,95.50
2018-03-06T02:08:52.800Z,95.31
2018-03-06T02:09:52.787Z,95.50
2018-03-06T02:10:52.833Z,95.41
2018-03-06T02:11:52.829Z,95.41
2018-03-06T02:12:52.858Z,95.69
2018-03-06T02:13:52.864Z,95.69
2018-03-06T02:14:52.875Z,95.60
2018-03-06T02:15:52.899Z,95.88
2018-03-06T02:16:52.911Z,96.07
2018-03-06T02:17:52.931Z,95.98
2018-03-06T02:18:52.944Z,96.07
2018-03-06T02:19:52.967Z,95.88
2018-03-06T02:20:52.980Z,95.98
2018-03-06T02:21:52.996Z,96.55
2018-03-06T02:22:53.019Z,96.55
2018-03-06T02:23:53.031Z,96.45
2018-03-06T02:24:53.054Z,96.45
2018-03-06T02:25:53.066Z,96.55
2018-03-06T02:26:53.087Z,96.55
2018-03-06T02:27:53.101Z,96.69
2018-03-06T02:28:53.123Z,96.36
2018-03-06T02:29:53.135Z,96.83
2018-03-06T02:30:53.163Z,97.11
2018-03-06T02:31:53.175Z,96.83
2018-03-06T02:32:53.186Z,97.16
2018-03-06T02:33:53.203Z,97.16
2018-03-06T02:34:53.227Z,96.78
2018-03-06T02:35:53.244Z,97.06
2018-03-06T02:36:53.255Z,97.02
2018-03-06T02:37:53.279Z,97.40
2018-03-06T02:38:53.290Z,97.59
2018-03-06T02:39:53.313Z,97.44
2018-03-06T02:40:53.326Z,97.11
2018-03-06T02:41:53.348Z,97.16
2018-03-06T02:42:53.359Z,97.02
2018-03-06T02:43:53.382Z,97.54
2018-03-06T02:44:53.393Z,97.35
2018-03-06T02:45:53.418Z,97.16
2018-03-06T02:46:53.428Z,97.16
2018-03-06T02:47:53.446Z,96.88
2018-03-06T02:48:53.469Z,97.06
2018-03-06T02:49:53.484Z,97.06
2018-03-06T02:50:53.498Z,97.25
2018-03-06T02:51:53.515Z,97.35
2018-03-06T02:52:53.537Z,97.73
2018-03-06T02:53:53.548Z,97.73
2018-03-06T02:54:53.571Z,97.54
2018-03-06T02:55:53.589Z,97.25
2018-03-06T02:56:53.599Z,97.92
2018-03-06T02:57:53.617Z,97.44
2018-03-06T02:58:53.640Z,97.44
2018-03-06T02:59:53.658Z,97.16
2018-03-06T03:00:53.668Z,97.54
2018-03-06T03:01:53.685Z,97.44
2018-03-06T03:02:53.716Z,97.63
2018-03-06T03:03:53.722Z,97.82
2018-03-06T03:04:53.743Z,97.73
2018-03-06T03:05:53.754Z,98.20
2018-03-06T03:06:53.780Z,97.82
2018-03-06T03:07:53.789Z,98.01
2018-03-06T03:08:53.812Z,97.92
2018-03-06T03:09:53.823Z,98.11
2018-03-06T03:10:53.847Z,97.92
2018-03-06T03:11:53.861Z,98.11
2018-03-06T03:12:53.880Z,97.92
2018-03-06T03:13:53.891Z,97.92
2018-03-06T03:14:53.915Z,98.49
2018-03-06T03:15:53.927Z,98.20
2018-03-06T03:16:53.949Z,98.39
2018-03-06T03:17:53.989Z,97.82
2018-03-06T03:18:53.977Z,98.39
2018-03-06T03:19:54.023Z,98.20
2018-03-06T03:20:54.012Z,97.92
2018-03-06T03:21:54.057Z,98.30
2018-03-06T03:22:54.048Z,98.49
2018-03-06T03:23:54.104Z,98.68
2018-03-06T03:24:54.121Z,99.05
2018-03-06T03:25:54.103Z,99.33
2018-03-06T03:26:54.115Z,99.24
2018-03-06T03:27:54.157Z,99.33
2018-03-06T03:28:54.148Z,98.96
2018-03-06T03:29:54.171Z,99.05
2018-03-06T03:30:54.184Z,99.33
2018-03-06T03:31:54.207Z,99.43
2018-03-06T03:32:54.217Z,99.33
2018-03-06T03:33:54.233Z,99.43
2018-03-06T03:34:54.256Z,99.43
2018-03-06T03:35:54.274Z,99.62
2018-03-06T03:36:54.286Z,99.99
2018-03-06T03:37:54.303Z,99.99
2018-03-06T03:38:54.325Z,99.99
2018-03-06T03:39:54.343Z,99.99
2018-03-06T03:40:54.353Z,99.99
2018-03-06T03:41:54.371Z,99.99
2018-03-06T03:42:54.393Z,99.90
2018-03-06T03:43:54.416Z,99.99
2018-03-06T03:44:54.426Z,99.99
2018-03-06T03:45:54.439Z,99.99
2018-03-06T03:46:54.462Z,99.99
2018-03-06T03:47:54.478Z,99.99
2018-03-06T03:48:54.491Z,99.99
2018-03-06T03:49:54.513Z,99.99
2018-03-06T03:50:54.527Z,99.99
2018-03-06T03:51:54.542Z,99.99
2018-03-06T03:52:54.565Z,99.99
2018-03-06T03:53:54.580Z,99.99
2018-03-06T03:54:54.593Z,99.99
2018-03-06T03:55:54.610Z,99.99
2018-03-06T03:56:54.632Z,99.99
2018-03-06T03:57:54.647Z,99.99
2018-03-06T03:58:54.660Z,99.99
2018-03-06T03:59:54.682Z,99.99
2018-03-06T04:00:54.699Z,99.99
2018-03-06T04:01:54.717Z,99.99
2018-03-06T04:02:54.730Z,99.99
2018-03-06T04:03:54.744Z,99.99
2018-03-06T04:04:54.767Z,99.99
2018-03-06T04:05:54.784Z,99.99
2018-03-06T04:06:54.806Z,99.99
2018-03-06T04:07:54.822Z,99.99
2018-03-06T04:08:54.835Z,99.99
2018-03-06T04:09:54.851Z,99.99
2018-03-06T04:10:54.869Z,99.99
2018-03-06T04:11:54.939Z,99.99
2018-03-06T04:12:54.897Z,99.99
2018-03-06T04:13:54.918Z,99.99
2018-03-06T04:14:54.931Z,99.99
2018-03-06T04:15:54.952Z,99.99
2018-03-06T04:16:54.970Z,99.99
2018-03-06T04:17:54.987Z,99.99
2018-03-06T04:18:54.999Z,99.99
2018-03-06T04:19:55.019Z,99.99
2018-03-06T04:20:55.038Z,99.99
2018-03-06T04:21:55.048Z,99.99
2018-03-06T04:22:55.066Z,99.99
2018-03-06T04:23:55.085Z,99.99
2018-03-06T04:24:55.098Z,99.99
2018-03-06T04:25:55.122Z,99.99
2018-03-06T04:26:55.133Z,99.99
2018-03-06T04:27:55.150Z,99.99
2018-03-06T04:28:55.173Z,99.99
2018-03-06T04:29:55.205Z,99.99
2018-03-06T04:30:55.265Z,99.99
2018-03-06T04:31:55.217Z,99.99
2018-03-06T04:32:55.241Z,99.99
2018-03-06T04:33:55.252Z,99.99
2018-03-06T04:34:55.273Z,99.99
2018-03-06T04:35:55.284Z,99.99
2018-03-06T04:36:55.306Z,99.99
2018-03-06T04:37:55.319Z,99.99
2018-03-06T04:38:55.334Z,99.99
2018-03-06T04:39:55.351Z,99.99
2018-03-06T04:40:55.374Z,99.99
2018-03-06T04:41:55.391Z,99.99
2018-03-06T04:42:55.405Z,99.99
2018-03-06T04:43:55.425Z,99.99
2018-03-06T04:44:55.441Z,99.99
2018-03-06T04:45:55.458Z,99.99
2018-03-06T04:46:55.471Z,99.99
2018-03-06T04:47:55.493Z,99.99
2018-03-06T04:48:55.503Z,99.99
2018-03-06T04:49:55.526Z,99.99
2018-03-06T04:50:55.537Z,99.99
2018-03-06T04:51:55.560Z,99.99
2018-03-06T04:52:55.570Z,99.99
2018-03-06T04:53:55.595Z,99.99
2018-03-06T04:54:55.612Z,99.99
2018-03-06T04:55:55.628Z,99.99
2018-03-06T04:56:55.639Z,99.99
2018-03-06T04:57:55.655Z,99.99
2018-03-06T04:58:55.679Z,99.99
2018-03-06T04:59:55.690Z,99.99
2018-03-06T05:00:55.706Z,99.99
2018-03-06T05:01:55.729Z,99.99
2018-03-06T05:02:55.741Z,99.99
2018-03-06T05:03:55.757Z,99.99
2018-03-06T05:04:55.780Z,99.99
2018-03-06T05:05:55.796Z,99.99
2018-03-06T05:06:55.809Z,99.99
2018-03-06T05:07:55.825Z,99.99
2018-03-06T05:08:55.847Z,99.99
2018-03-06T05:09:55.863Z,99.99
2018-03-06T05:10:55.877Z,99.99
2018-03-06T05:11:55.898Z,99.99
2018-03-06T05:12:55.913Z,99.99
2018-03-06T05:13:55.931Z,99.99
2018-03-06T05:14:55.947Z,99.99
2018-03-06T05:15:55.966Z,99.99
2018-03-06T05:16:55.976Z,99.99
2018-03-06T05:17:55.992Z,99.99
2018-03-06T05:18:56.063Z,99.99
2018-03-06T05:19:56.029Z,99.99
2018-03-06T05:20:56.048Z,99.99
2018-03-06T05:21:56.062Z,99.99
2018-03-06T05:22:56.084Z,99.99
2018-03-06T05:23:56.095Z,99.99
2018-03-06T05:24:56.117Z,99.99
2018-03-06T05:25:56.128Z,99.99
2018-03-06T05:26:56.183Z,99.99
2018-03-06T05:27:56.162Z,99.99
2018-03-06T05:28:56.179Z,99.99
2018-03-06T05:29:56.196Z,99.99
2018-03-06T05:30:56.212Z,99.99
2018-03-06T05:31:56.229Z,99.99
2018-03-06T05:32:56.254Z,99.99
2018-03-06T05:33:56.269Z,99.99
2018-03-06T05:34:56.280Z,99.99
2018-03-06T05:35:56.303Z,99.99
2018-03-06T05:36:56.313Z,99.99
2018-03-06T05:37:56.336Z,99.99
2018-03-06T05:38:56.385Z,99.99
2018-03-06T05:39:56.373Z,99.99
2018-03-06T05:40:56.388Z,99.99
2018-03-06T05:41:56.401Z,99.99
2018-03-06T05:42:56.417Z,99.99
2018-03-06T05:43:56.433Z,99.99
2018-03-06T05:44:56.454Z,99.99
2018-03-06T05:45:56.472Z,99.99
2018-03-06T05:46:56.483Z,99.99
2018-03-06T05:47:56.506Z,99.99
2018-03-06T05:48:56.521Z,99.99
2018-03-06T05:49:56.560Z,99.99
2018-03-06T05:50:56.550Z,99.99
2018-03-06T05:51:56.588Z,99.99
2018-03-06T05:52:56.590Z,99.99
2018-03-06T05:53:56.606Z,99.99
2018-03-06T05:54:56.617Z,99.99
2018-03-06T05:55:56.634Z,99.99
2018-03-06T05:56:56.656Z,99.99
2018-03-06T05:57:56.677Z,99.99
2018-03-06T05:58:56.691Z,99.99
2018-03-06T05:59:56.709Z,99.99
2018-03-06T06:00:56.722Z,99.99
2018-03-06T06:01:56.734Z,99.99
2018-03-06T06:02:56.757Z,99.99
2018-03-06T06:03:56.769Z,99.99
2018-03-06T06:04:56.789Z,99.99
2018-03-06T06:05:56.806Z,99.99
2018-03-06T06:06:56.825Z,99.99
2018-03-06T06:07:56.843Z,99.99
2018-03-06T06:08:56.854Z,99.99
2018-03-06T06:09:56.870Z,99.99
2018-03-06T06:10:56.893Z,99.99
2018-03-06T06:11:56.910Z,99.99
2018-03-06T06:12:56.920Z,99.99
2018-03-06T06:13:56.939Z,99.99
2018-03-06T06:14:56.960Z,99.99
2018-03-06T06:15:56.977Z,99.99
2018-03-06T06:16:56.989Z,99.99
2018-03-06T06:17:57.007Z,99.99
2018-03-06T06:18:57.028Z,99.99
2018-03-06T06:19:57.045Z,99.99
2018-03-06T06:20:57.056Z,99.99
2018-03-06T06:21:57.072Z,99.99
2018-03-06T06:22:57.095Z,99.99
2018-03-06T06:23:57.112Z,99.99
2018-03-06T06:24:57.123Z,99.99
2018-03-06T06:25:57.140Z,99.99
2018-03-06T06:26:57.163Z,99.99
2018-03-06T06:27:57.180Z,99.99
2018-03-06T06:28:57.190Z,99.99
2018-03-06T06:29:57.213Z,99.99
2018-03-06T06:30:57.225Z,99.99
2018-03-06T06:31:57.247Z,99.99
2018-03-06T06:32:57.264Z,99.99
2018-03-06T06:33:57.287Z,99.99
2018-03-06T06:34:57.292Z,99.99
2018-03-06T06:35:57.318Z,99.99
2018-03-06T06:36:57.334Z,99.99
2018-03-06T06:37:57.351Z,99.99
2018-03-06T06:38:57.360Z,99.99
2018-03-06T06:39:57.378Z,99.99
2018-03-06T06:40:57.400Z,99.90
2018-03-06T06:41:57.417Z,99.81
2018-03-06T06:42:57.429Z,99.62
2018-03-06T06:43:57.447Z,99.43
2018-03-06T06:44:57.468Z,99.33
2018-03-06T06:45:57.481Z,99.48
2018-03-06T06:46:57.519Z,98.72
2018-03-06T06:47:57.515Z,98.63
2018-03-06T06:48:57.536Z,98.35
2018-03-06T06:49:57.548Z,97.78
2018-03-06T06:50:57.571Z,97.21
2018-03-06T06:51:57.584Z,97.21
2018-03-06T06:52:57.606Z,97.49
2018-03-06T06:53:57.616Z,97.21
2018-03-06T06:54:57.639Z,96.83
2018-03-06T06:55:58.054Z,97.21
2018-03-06T06:56:57.676Z,97.30
2018-03-06T06:57:57.686Z,97.21
2018-03-06T06:58:57.709Z,97.11
2018-03-06T06:59:57.724Z,97.11
2018-03-06T07:00:57.744Z,96.73
2018-03-06T07:01:57.761Z,97.21
2018-03-06T07:02:57.773Z,97.40
2018-03-06T07:03:57.816Z,97.02
2018-03-06T07:04:57.826Z,96.73
2018-03-06T07:05:57.851Z,97.02
2018-03-06T07:06:57.843Z,97.40
2018-03-06T07:07:57.866Z,97.30
2018-03-06T07:08:57.878Z,97.02
2018-03-06T07:09:57.903Z,96.73
2018-03-06T07:10:57.912Z,96.45
2018-03-06T07:11:57.938Z,96.36
2018-03-06T07:12:57.947Z,96.55
2018-03-06T07:13:57.971Z,95.79
2018-03-06T07:14:57.986Z,96.07
2018-03-06T07:15:58.006Z,95.98
2018-03-06T07:16:58.040Z,95.88
2018-03-06T07:17:58.042Z,95.69
2018-03-06T07:18:58.057Z,95.12
2018-03-06T07:19:58.076Z,94.93
2018-03-06T07:20:58.088Z,94.60
2018-03-06T07:21:58.110Z,94.42
2018-03-06T07:22:58.124Z,94.23
2018-03-06T07:23:58.148Z,93.94
2018-03-06T07:24:58.159Z,94.23
2018-03-06T07:25:58.176Z,93.65
2018-03-06T07:26:58.200Z,93.27
2018-03-06T07:27:58.218Z,92.90
2018-03-06T07:28:58.230Z,92.90
2018-03-06T07:29:58.280Z,92.90
2018-03-06T07:30:58.271Z,92.61
2018-03-06T07:31:58.289Z,92.42
2018-03-06T07:32:58.299Z,92.61
2018-03-06T07:33:58.319Z,92.23
2018-03-06T07:34:58.343Z,92.14
2018-03-06T07:35:58.361Z,91.99
2018-03-06T07:36:58.372Z,91.42
2018-03-06T07:37:58.390Z,91.80
2018-03-06T07:38:58.415Z,90.95
2018-03-06T07:39:58.432Z,90.86
2018-03-06T07:40:58.444Z,90.76
2018-03-06T07:41:58.474Z,90.67
2018-03-06T07:42:58.480Z,90.86
2018-03-06T07:43:58.500Z,91.05
2018-03-06T07:44:58.522Z,90.95
2018-03-06T07:45:58.540Z,90.67
2018-03-06T07:46:58.554Z,90.67
2018-03-06T07:47:58.578Z,90.67
2018-03-06T07:48:58.642Z,90.48
2018-03-06T07:49:58.608Z,89.62
2018-03-06T07:50:58.637Z,89.62
2018-03-06T07:51:58.651Z,89.43
2018-03-06T07:52:58.662Z,89.15
2018-03-06T07:53:58.682Z,89.43
2018-03-06T07:54:58.706Z,89.91
2018-03-06T07:55:58.724Z,90.19
2018-03-06T07:56:58.736Z,89.91
2018-03-06T07:57:58.756Z,89.62
2018-03-06T07:58:58.782Z,90.38
2018-03-06T07:59:58.793Z,90.57
2018-03-06T08:00:58.817Z,90.48
2018-03-06T08:01:58.880Z,89.81
2018-03-06T08:02:58.853Z,89.34
2018-03-06T08:03:58.866Z,89.06
2018-03-06T08:04:58.892Z,89.34
2018-03-06T08:05:58.903Z,88.81
2018-03-06T08:06:58.931Z,88.20
2018-03-06T08:07:58.941Z,88.39
2018-03-06T08:08:58.963Z,88.43
2018-03-06T08:09:58.978Z,87.77
2018-03-06T08:10:59.002Z,87.39
2018-03-06T08:11:59.018Z,87.11
2018-03-06T08:12:59.037Z,86.72
2018-03-06T08:13:59.057Z,86.82
2018-03-06T08:14:59.072Z,86.07
2018-03-06T08:15:59.095Z,86.16
2018-03-06T08:16:59.107Z,87.11
2018-03-06T08:17:59.132Z,86.16
2018-03-06T08:18:59.147Z,86.25
2018-03-06T08:19:59.169Z,87.11
2018-03-06T08:20:59.184Z,87.01
2018-03-06T08:21:59.224Z,86.54
2018-03-06T08:22:59.220Z,86.63
2018-03-06T08:23:59.270Z,85.78
2018-03-06T08:24:59.272Z,85.72
2018-03-06T08:25:59.282Z,85.06
2018-03-06T08:26:59.297Z,84.21
2018-03-06T08:27:59.315Z,83.01
2018-03-06T08:28:59.340Z,80.58
2018-03-06T08:29:59.352Z,79.06
2018-03-06T08:30:59.379Z,77.39
2018-03-06T08:31:59.398Z,75.38
2018-03-06T08:32:59.418Z,71.51
2018-03-06T08:33:59.433Z,68.98
2018-03-06T08:34:59.455Z,66.91
2018-03-06T08:35:59.479Z,65.45
2018-03-06T08:36:59.498Z,65.96
2018-03-06T08:37:59.515Z,65.58
2018-03-06T08:38:59.543Z,64.37
2018-03-06T08:39:59.565Z,63.23
2018-03-06T08:40:59.578Z,63.10
2018-03-06T08:41:59.601Z,64.43
2018-03-06T08:42:59.632Z,64.56
2018-03-06T08:43:59.654Z,62.94
2018-03-06T08:44:59.669Z,63.48
2018-03-06T08:45:59.699Z,65.51
2018-03-06T08:46:59.716Z,67.67
2018-03-06T08:47:59.738Z,69.38
2018-03-06T08:48:59.763Z,70.24
2018-03-06T08:49:59.792Z,70.81
2018-03-06T08:50:59.817Z,69.89
2018-03-06T08:51:59.831Z,67.93
2018-03-06T08:52:59.859Z,66.05
2018-03-06T08:53:59.877Z,62.78
2018-03-06T08:54:59.909Z,60.52
2018-03-06T08:55:59.926Z,59.85
2018-03-06T08:56:59.954Z,59.66
2018-03-06T08:57:59.976Z,59.28
2018-03-06T08:59:00.003Z,59.34
2018-03-06T09:00:00.023Z,59.34
2018-03-06T09:01:00.052Z,59.38
2018-03-06T09:02:00.079Z,59.34
2018-03-06T09:03:00.096Z,58.97
2018-03-06T09:04:00.126Z,58.70
2018-03-06T09:05:00.151Z,57.97
2018-03-06T09:06:00.178Z,57.24
2018-03-06T09:07:00.203Z,55.52
2018-03-06T09:08:00.228Z,55.23
2018-03-06T09:09:00.252Z,54.78
2018-03-06T09:10:00.308Z,54.78
2018-03-06T09:11:00.299Z,55.40
2018-03-06T09:12:00.330Z,55.99
2018-03-06T09:13:00.355Z,54.21
2018-03-06T09:14:00.383Z,52.99
2018-03-06T09:15:00.408Z,51.68
2018-03-06T09:16:00.437Z,50.24
2018-03-06T09:17:00.457Z,50.60
2018-03-06T09:18:00.487Z,52.36
2018-03-06T09:19:00.517Z,54.02
2018-03-06T09:20:00.539Z,53.16
2018-03-06T09:21:00.565Z,53.99
2018-03-06T09:22:00.593Z,54.56
2018-03-06T09:23:00.621Z,54.88
2018-03-06T09:24:00.659Z,53.06
2018-03-06T09:25:00.691Z,52.89
2018-03-06T09:26:00.710Z,51.29
2018-03-06T09:27:00.741Z,49.69
2018-03-06T09:28:00.766Z,49.50
2018-03-06T09:29:00.789Z,48.18
2018-03-06T09:30:00.822Z,46.96
2018-03-06T09:31:00.846Z,46.75
2018-03-06T09:32:00.885Z,46.29
2018-03-06T09:33:00.903Z,45.72
2018-03-06T09:34:00.937Z,45.90
2018-03-06T09:35:00.967Z,46.48
2018-03-06T09:36:00.995Z,46.39
2018-03-06T09:37:01.024Z,46.46
2018-03-06T09:38:01.048Z,47.42
2018-03-06T09:39:01.077Z,48.09
2018-03-06T09:40:01.113Z,48.75
2018-03-06T09:41:01.135Z,48.57
2018-03-06T09:42:01.172Z,48.57
2018-03-06T09:43:01.195Z,47.80
2018-03-06T09:44:01.224Z,47.15
2018-03-06T09:45:01.260Z,46.31
2018-03-06T09:46:01.289Z,46.58
2018-03-06T09:47:01.316Z,47.22
2018-03-06T09:48:01.345Z,47.68
2018-03-06T09:49:01.378Z,48.83
2018-03-06T09:50:01.409Z,49.33
2018-03-06T09:51:01.432Z,48.57
2018-03-06T09:52:01.464Z,47.89
2018-03-06T09:53:01.492Z,47.80
2018-03-06T09:54:01.529Z,47.99
2018-03-06T09:55:01.559Z,47.63
2018-03-06T09:56:01.584Z,46.96
2018-03-06T09:57:01.617Z,45.74
2018-03-06T09:58:01.649Z,45.37
2018-03-06T09:59:01.675Z,44.32
2018-03-06T10:00:01.706Z,44.42
2018-03-06T10:01:01.740Z,43.84
2018-03-06T10:02:01.772Z,43.48
2018-03-06T10:03:01.810Z,42.06
2018-03-06T10:04:01.829Z,40.72
2018-03-06T10:05:01.863Z,40.73
2018-03-06T10:06:01.894Z,40.18
2018-03-06T10:07:01.923Z,40.28
2018-03-06T10:08:01.950Z,39.61
2018-03-06T10:09:01.986Z,39.31
2018-03-06T10:10:02.018Z,39.99
2018-03-06T10:11:02.050Z,39.97
2018-03-06T10:12:02.082Z,39.89
2018-03-06T10:13:02.113Z,39.31
2018-03-06T10:14:02.137Z,38.93
2018-03-06T10:15:02.176Z,39.20
2018-03-06T10:16:02.201Z,40.02
2018-03-06T10:17:02.240Z,41.27
2018-03-06T10:18:02.304Z,41.27
2018-03-06T10:19:02.305Z,41.17
2018-03-06T10:20:02.336Z,41.73
2018-03-06T10:21:02.367Z,41.46
2018-03-06T10:22:02.394Z,41.27
2018-03-06T10:23:02.434Z,40.62
2018-03-06T10:24:02.463Z,40.62
2018-03-06T10:25:02.486Z,41.66
2018-03-06T10:26:02.519Z,41.67
2018-03-06T10:27:02.551Z,40.33
2018-03-06T10:28:02.590Z,40.08
2018-03-06T10:29:02.615Z,39.58
2018-03-06T10:30:02.646Z,39.51
2018-03-06T10:31:02.683Z,39.03
2018-03-06T10:32:02.716Z,38.74
2018-03-06T10:33:02.741Z,38.43
2018-03-06T10:34:02.780Z,38.79
2018-03-06T10:35:02.810Z,39.68
2018-03-06T10:36:02.843Z,39.31
2018-03-06T10:37:02.869Z,39.66
2018-03-06T10:38:02.900Z,40.52
2018-03-06T10:39:02.938Z,40.08
2018-03-06T10:40:02.964Z,38.28
2018-03-06T10:41:03.001Z,37.51
2018-03-06T10:42:03.027Z,36.95
2018-03-06T10:43:03.065Z,36.27
2018-03-06T10:44:03.093Z,36.43
2018-03-06T10:45:03.134Z,37.08
2018-03-06T10:46:03.159Z,38.79
2018-03-06T10:47:03.212Z,39.16
2018-03-06T10:48:03.219Z,40.00
2018-03-06T10:49:03.257Z,41.61
2018-03-06T10:50:03.283Z,41.90
2018-03-06T10:51:03.323Z,42.00
2018-03-06T10:52:03.349Z,42.27
2018-03-06T10:53:03.386Z,43.32
2018-03-06T10:54:03.422Z,43.51
2018-03-06T10:55:03.442Z,43.34
2018-03-06T10:56:03.480Z,42.50
2018-03-06T10:57:03.503Z,40.43
2018-03-06T10:58:03.540Z,38.91
2018-03-06T10:59:03.567Z,38.35
2018-03-06T11:00:03.603Z,37.22
2018-03-06T11:01:03.640Z,37.10
2018-03-06T11:02:03.664Z,37.01
2018-03-06T11:03:03.691Z,38.12
2018-03-06T11:04:03.728Z,39.37
2018-03-06T11:05:03.753Z,40.87
2018-03-06T11:06:03.791Z,40.70
2018-03-06T11:07:03.816Z,40.79
2018-03-06T11:08:03.854Z,40.79
2018-03-06T11:09:03.878Z,40.99
2018-03-06T11:10:03.910Z,40.62
2018-03-06T11:11:03.949Z,39.12
2018-03-06T11:12:03.978Z,38.72
2018-03-06T11:13:04.002Z,39.11
2018-03-06T11:14:04.033Z,37.97
2018-03-06T11:15:04.070Z,37.22
2018-03-06T11:16:04.104Z,37.02
2018-03-06T11:17:04.129Z,36.74
2018-03-06T11:18:04.160Z,37.37
2018-03-06T11:19:04.196Z,38.07
2018-03-06T11:20:04.229Z,38.62
2018-03-06T11:21:04.253Z,39.35
2018-03-06T11:22:04.284Z,40.50
2018-03-06T11:23:04.321Z,41.16
2018-03-06T11:24:04.354Z,41.27
2018-03-06T11:25:04.378Z,40.72
2018-03-06T11:26:04.423Z,40.62
2018-03-06T11:27:04.443Z,39.97
2018-03-06T11:28:04.473Z,39.49
2018-03-06T11:29:04.510Z,39.37
2018-03-06T11:30:04.541Z,39.66
2018-03-06T11:31:04.568Z,41.35
2018-03-06T11:32:04.599Z,42.21
2018-03-06T11:33:04.634Z,41.66
2018-03-06T11:34:04.659Z,40.70
2018-03-06T11:35:04.698Z,40.60
2018-03-06T11:36:04.721Z,40.89
2018-03-06T11:37:04.758Z,41.00
2018-03-06T11:38:04.784Z,40.64
2018-03-06T11:39:04.820Z,39.68
2018-03-06T11:40:04.846Z,39.12
2018-03-06T11:41:04.880Z,38.81
2018-03-06T11:42:04.907Z,38.56
2018-03-06T11:43:04.943Z,37.02
2018-03-06T11:44:04.968Z,37.49
2018-03-06T11:45:05.003Z,37.49
2018-03-06T11:46:05.029Z,37.49
2018-03-06T11:47:05.065Z,38.07
2018-03-06T11:48:05.095Z,38.53
2018-03-06T11:49:05.127Z,39.58
2018-03-06T11:50:05.157Z,39.68
2018-03-06T11:51:05.182Z,40.05
2018-03-06T11:52:05.218Z,40.05
2018-03-06T11:53:05.245Z,40.43
2018-03-06T11:54:05.281Z,39.95
2018-03-06T11:55:05.306Z,39.97
2018-03-06T11:56:05.342Z,39.56
2018-03-06T11:57:05.377Z,40.52
2018-03-06T11:58:05.402Z,39.95
2018-03-06T11:59:05.432Z,39.68
2018-03-06T12:00:05.465Z,39.11
2018-03-06T12:01:05.487Z,39.31
2018-03-06T12:02:05.575Z,39.47
2018-03-06T12:03:05.550Z,40.60
2018-03-06T12:04:05.586Z,41.63
2018-03-06T12:05:05.609Z,43.23
2018-03-06T12:06:05.639Z,44.27
2018-03-06T12:07:05.677Z,44.93
2018-03-06T12:08:05.704Z,46.17
2018-03-06T12:09:05.728Z,46.55
2018-03-06T12:10:05.813Z,47.30
2018-03-06T12:11:05.794Z,47.87
2018-03-06T12:12:05.823Z,47.32
2018-03-06T12:13:05.845Z,46.46
2018-03-06T12:14:05.878Z,46.29
2018-03-06T12:15:05.913Z,45.62
2018-03-06T12:16:05.943Z,45.14
2018-03-06T12:17:05.962Z,45.33
2018-03-06T12:18:05.989Z,45.16
2018-03-06T12:19:06.024Z,44.97
2018-03-06T12:20:06.052Z,44.56
2018-03-06T12:21:06.076Z,44.66
2018-03-06T12:22:06.109Z,45.21
2018-03-06T12:23:06.132Z,46.17
2018-03-06T12:24:06.159Z,46.17
2018-03-06T12:25:06.192Z,46.46
2018-03-06T12:26:06.221Z,46.36
2018-03-06T12:27:06.243Z,46.26
2018-03-06T12:28:06.272Z,46.17
2018-03-06T12:29:06.303Z,46.08
2018-03-06T12:30:06.392Z,46.46
2018-03-06T12:31:06.353Z,46.46
2018-03-06T12:32:06.382Z,46.94
2018-03-06T12:33:06.413Z,47.42
2018-03-06T12:34:06.440Z,47.20
2018-03-06T12:35:06.463Z,47.32
2018-03-06T12:36:06.494Z,47.13
2018-03-06T12:37:06.522Z,46.94
2018-03-06T12:38:06.550Z,46.17
2018-03-06T12:39:06.572Z,46.94
2018-03-06T12:40:06.598Z,47.20
2018-03-06T12:41:06.629Z,47.51
2018-03-06T12:42:06.656Z,47.13
2018-03-06T12:43:06.679Z,46.36
2018-03-06T12:44:06.706Z,46.10
2018-03-06T12:45:06.736Z,45.33
2018-03-06T12:46:06.763Z,45.04
2018-03-06T12:47:06.785Z,45.33
2018-03-06T12:48:06.818Z,45.69
2018-03-06T12:49:06.844Z,46.26
2018-03-06T12:50:06.870Z,46.75
2018-03-06T12:51:06.896Z,47.13
2018-03-06T12:52:06.923Z,46.26
2018-03-06T12:53:06.943Z,46.17